createdAt,value
2019-02-27T00:00:05.408Z,27.03
2019-02-27T00:01:05.410Z,27.06
2019-02-27T00:02:05.413Z,27.03
2019-02-27T00:03:05.420Z,27.04
2019-02-27T00:04:05.421Z,27.06
2019-02-27T00:05:05.970Z,27.07
2019-02-27T00:06:05.431Z,27.00
2019-02-27T00:07:05.429Z,26.99
2019-02-27T00:08:05.441Z,27.03
2019-02-27T00:09:05.433Z,26.94
2019-02-27T00:10:06.159Z,27.00
2019-02-27T00:11:05.439Z,27.06
2019-02-27T00:12:05.442Z,27.09
2019-02-27T00:13:05.446Z,27.04
2019-02-27T00:14:05.450Z,27.03
2019-02-27T00:15:05.967Z,26.97
2019-02-27T00:16:05.454Z,27.00
2019-02-27T00:17:05.459Z,27.04
2019-02-27T00:18:05.459Z,27.00
2019-02-27T00:19:05.464Z,26.95
2019-02-27T00:20:05.482Z,27.04
2019-02-27T00:21:10.036Z,27.03
2019-02-27T00:22:05.474Z,27.06
2019-02-27T00:23:05.478Z,27.02
2019-02-27T00:24:05.526Z,26.99
2019-02-27T00:25:05.484Z,27.00
2019-02-27T00:26:08.823Z,26.97
2019-02-27T00:27:05.485Z,26.95
2019-02-27T00:28:05.488Z,26.94
2019-02-27T00:29:05.493Z,27.04
2019-02-27T00:30:05.884Z,27.04
2019-02-27T00:31:05.499Z,27.09
2019-02-27T00:32:05.501Z,27.03
2019-02-27T00:33:05.504Z,27.03
2019-02-27T00:34:05.506Z,27.00
2019-02-27T00:35:07.219Z,27.02
2019-02-27T00:36:05.511Z,26.99
2019-02-27T00:37:05.514Z,27.00
2019-02-27T00:38:05.518Z,27.04
2019-02-27T00:39:05.519Z,27.02
2019-02-27T00:40:06.244Z,26.91
2019-02-27T00:41:05.525Z,27.06
2019-02-27T00:42:05.529Z,27.02
2019-02-27T00:43:05.531Z,27.02
2019-02-27T00:44:05.534Z,27.09
2019-02-27T00:45:07.024Z,27.03
2019-02-27T00:46:05.542Z,26.97
2019-02-27T00:47:05.542Z,26.95
2019-02-27T00:48:05.548Z,27.04
2019-02-27T00:49:05.549Z,26.94
2019-02-27T00:50:06.508Z,27.02
2019-02-27T00:51:05.555Z,26.94
2019-02-27T00:52:05.558Z,26.97
2019-02-27T00:53:05.559Z,26.95
2019-02-27T00:54:05.562Z,26.92
2019-02-27T00:55:05.570Z,26.95
2019-02-27T00:56:05.567Z,26.97
2019-02-27T00:57:05.575Z,26.94
2019-02-27T00:58:05.577Z,26.97
2019-02-27T00:59:05.578Z,26.94
2019-02-27T01:00:06.642Z,27.02
2019-02-27T01:01:05.582Z,26.94
2019-02-27T01:02:05.585Z,27.00
2019-02-27T01:03:05.589Z,26.97
2019-02-27T01:04:05.591Z,27.04
2019-02-27T01:05:06.268Z,26.95
2019-02-27T01:06:05.597Z,26.97
2019-02-27T01:07:05.600Z,26.95
2019-02-27T01:08:05.604Z,26.92
2019-02-27T01:09:06.388Z,27.00
2019-02-27T01:10:05.612Z,27.02
2019-02-27T01:11:05.611Z,26.94
2019-02-27T01:12:05.614Z,27.06
2019-02-27T01:13:05.617Z,26.95
2019-02-27T01:14:05.621Z,26.99
2019-02-27T01:15:07.903Z,26.95
2019-02-27T01:16:05.629Z,26.94
2019-02-27T01:17:05.628Z,27.06
2019-02-27T01:18:05.631Z,26.92
2019-02-27T01:19:05.635Z,26.92
2019-02-27T01:20:05.637Z,26.95
2019-02-27T01:21:05.640Z,26.94
2019-02-27T01:22:05.643Z,26.92
2019-02-27T01:23:05.646Z,26.91
2019-02-27T01:24:05.655Z,26.95
2019-02-27T01:25:05.666Z,27.00
2019-02-27T01:26:05.660Z,26.95
2019-02-27T01:27:05.659Z,27.00
2019-02-27T01:28:05.659Z,26.95
2019-02-27T01:29:05.665Z,26.95
2019-02-27T01:30:05.667Z,27.02
2019-02-27T01:31:05.674Z,27.03
2019-02-27T01:32:05.672Z,26.92
2019-02-27T01:33:05.675Z,26.95
2019-02-27T01:34:05.686Z,26.91
2019-02-27T01:35:05.680Z,26.92
2019-02-27T01:36:05.683Z,26.97
2019-02-27T01:37:05.685Z,26.97
2019-02-27T01:38:05.907Z,26.95
2019-02-27T01:39:05.691Z,26.92
2019-02-27T01:40:05.694Z,27.03
2019-02-27T01:41:05.697Z,27.00
2019-02-27T01:42:05.702Z,26.97
2019-02-27T01:43:06.391Z,26.89
2019-02-27T01:44:05.705Z,27.00
2019-02-27T01:45:05.711Z,26.94
2019-02-27T01:46:05.713Z,27.02
2019-02-27T01:47:05.715Z,26.88
2019-02-27T01:48:08.914Z,26.94
2019-02-27T01:49:05.726Z,26.89
2019-02-27T01:50:05.727Z,26.88
2019-02-27T01:51:05.762Z,26.89
2019-02-27T01:52:05.733Z,26.89
2019-02-27T01:53:07.425Z,26.91
2019-02-27T01:54:05.734Z,26.94
2019-02-27T01:55:05.743Z,26.94
2019-02-27T01:56:05.742Z,26.95
2019-02-27T01:57:05.749Z,26.99
2019-02-27T01:58:09.171Z,26.91
2019-02-27T01:59:05.754Z,26.97
2019-02-27T02:00:06.355Z,27.00
2019-02-27T02:01:05.754Z,26.89
2019-02-27T02:02:05.757Z,27.02
2019-02-27T02:03:05.760Z,26.97
2019-02-27T02:04:05.765Z,26.97
2019-02-27T02:05:05.765Z,26.89
2019-02-27T02:06:05.768Z,26.94
2019-02-27T02:07:06.597Z,26.89
2019-02-27T02:08:05.774Z,26.88
2019-02-27T02:09:05.777Z,26.99
2019-02-27T02:10:05.781Z,27.02
2019-02-27T02:11:05.782Z,26.94
2019-02-27T02:12:08.134Z,26.95
2019-02-27T02:13:05.790Z,26.94
2019-02-27T02:14:05.791Z,26.94
2019-02-27T02:15:05.795Z,26.97
2019-02-27T02:16:05.799Z,26.94
2019-02-27T02:17:07.482Z,26.88
2019-02-27T02:18:05.806Z,27.00
2019-02-27T02:19:05.808Z,26.97
2019-02-27T02:20:05.811Z,26.92
2019-02-27T02:21:05.812Z,26.94
2019-02-27T02:22:06.112Z,27.02
2019-02-27T02:23:05.817Z,26.92
2019-02-27T02:24:05.819Z,26.97
2019-02-27T02:25:05.823Z,26.94
2019-02-27T02:26:05.829Z,26.97
2019-02-27T02:27:07.768Z,26.97
2019-02-27T02:28:05.831Z,26.99
2019-02-27T02:29:05.833Z,26.97
2019-02-27T02:30:05.840Z,26.94
2019-02-27T02:31:06.526Z,26.99
2019-02-27T02:32:05.843Z,26.95
2019-02-27T02:33:05.849Z,26.97
2019-02-27T02:34:06.388Z,26.94
2019-02-27T02:35:05.851Z,26.92
2019-02-27T02:36:05.853Z,26.92
2019-02-27T02:37:05.859Z,26.99
2019-02-27T02:38:12.070Z,26.95
2019-02-27T02:39:05.864Z,27.00
2019-02-27T02:40:05.864Z,26.94
2019-02-27T02:41:08.472Z,26.94
2019-02-27T02:42:05.877Z,26.94
2019-02-27T02:43:05.877Z,26.97
2019-02-27T02:44:05.877Z,26.87
2019-02-27T02:45:05.879Z,26.92
2019-02-27T02:46:08.887Z,26.94
2019-02-27T02:47:05.886Z,26.97
2019-02-27T02:48:05.888Z,26.91
2019-02-27T02:49:07.996Z,26.95
2019-02-27T02:50:05.895Z,26.88
2019-02-27T02:51:05.900Z,26.92
2019-02-27T02:52:06.000Z,26.92
2019-02-27T02:53:05.903Z,26.97
2019-02-27T02:54:05.907Z,26.95
2019-02-27T02:55:11.979Z,26.92
2019-02-27T02:56:05.911Z,26.94
2019-02-27T02:57:05.915Z,26.94
2019-02-27T02:58:08.002Z,26.99
2019-02-27T02:59:05.919Z,27.02
2019-02-27T03:00:05.921Z,26.92
2019-02-27T03:01:05.924Z,26.91
2019-02-27T03:02:05.928Z,26.94
2019-02-27T03:03:05.934Z,26.95
2019-02-27T03:04:05.939Z,26.92
2019-02-27T03:05:05.936Z,26.92
2019-02-27T03:06:05.941Z,26.94
2019-02-27T03:07:07.192Z,26.95
2019-02-27T03:08:05.945Z,26.97
2019-02-27T03:09:05.951Z,26.92
2019-02-27T03:10:07.411Z,26.94
2019-02-27T03:11:05.954Z,26.89
2019-02-27T03:12:05.960Z,26.92
2019-02-27T03:13:07.274Z,26.94
2019-02-27T03:14:05.964Z,26.95
2019-02-27T03:15:05.966Z,26.97
2019-02-27T03:16:06.104Z,26.92
2019-02-27T03:17:05.970Z,27.00
2019-02-27T03:18:05.972Z,26.89
2019-02-27T03:19:06.534Z,26.99
2019-02-27T03:20:05.990Z,26.94
2019-02-27T03:21:05.982Z,26.95
2019-02-27T03:22:05.989Z,26.94
2019-02-27T03:23:05.991Z,26.92
2019-02-27T03:24:05.994Z,26.94
2019-02-27T03:25:05.998Z,26.99
2019-02-27T03:26:05.996Z,26.94
2019-02-27T03:27:05.999Z,26.95
2019-02-27T03:28:06.013Z,26.95
2019-02-27T03:29:06.005Z,26.94
2019-02-27T03:30:06.009Z,26.91
2019-02-27T03:31:16.364Z,26.94
2019-02-27T03:32:06.017Z,26.99
2019-02-27T03:33:06.016Z,26.95
2019-02-27T03:34:08.878Z,26.92
2019-02-27T03:35:06.033Z,26.94
2019-02-27T03:36:06.024Z,26.94
2019-02-27T03:37:06.025Z,26.94
2019-02-27T03:38:06.033Z,26.92
2019-02-27T03:39:06.086Z,26.92
2019-02-27T03:40:10.688Z,26.89
2019-02-27T03:41:06.144Z,26.95
2019-02-27T03:42:06.042Z,26.88
2019-02-27T03:43:10.145Z,26.89
2019-02-27T03:44:06.047Z,26.97
2019-02-27T03:45:06.050Z,26.99
2019-02-27T03:46:07.123Z,26.99
2019-02-27T03:47:06.065Z,26.97
2019-02-27T03:48:06.058Z,26.94
2019-02-27T03:49:06.062Z,26.89
2019-02-27T03:50:06.063Z,26.95
2019-02-27T03:51:06.067Z,26.95
2019-02-27T03:52:06.079Z,27.00
2019-02-27T03:53:10.682Z,26.94
2019-02-27T03:54:06.077Z,26.94
2019-02-27T03:55:06.079Z,26.92
2019-02-27T03:56:09.779Z,26.97
2019-02-27T03:57:06.085Z,26.95
2019-02-27T03:58:06.089Z,26.91
2019-02-27T03:59:07.515Z,26.92
2019-02-27T04:00:06.094Z,26.94
2019-02-27T04:01:06.097Z,26.94
2019-02-27T04:02:06.956Z,26.95
2019-02-27T04:03:06.113Z,26.95
2019-02-27T04:04:06.103Z,26.97
2019-02-27T04:05:07.511Z,26.92
2019-02-27T04:06:06.122Z,26.92
2019-02-27T04:07:06.113Z,26.92
2019-02-27T04:08:08.669Z,26.92
2019-02-27T04:09:06.118Z,26.94
2019-02-27T04:10:06.122Z,26.95
2019-02-27T04:11:06.848Z,26.92
2019-02-27T04:12:06.126Z,26.92
2019-02-27T04:13:06.134Z,26.97
2019-02-27T04:14:06.144Z,26.97
2019-02-27T04:15:06.138Z,26.95
2019-02-27T04:16:06.138Z,26.97
2019-02-27T04:17:07.471Z,27.00
2019-02-27T04:18:06.153Z,26.94
2019-02-27T04:19:06.148Z,26.92
2019-02-27T04:20:06.154Z,26.91
2019-02-27T04:21:06.154Z,26.92
2019-02-27T04:22:06.155Z,26.92
2019-02-27T04:23:11.262Z,26.95
2019-02-27T04:24:06.161Z,26.95
2019-02-27T04:25:06.163Z,26.88
2019-02-27T04:26:06.703Z,26.92
2019-02-27T04:27:06.170Z,26.92
2019-02-27T04:28:06.182Z,26.92
2019-02-27T04:29:08.431Z,26.95
2019-02-27T04:30:06.177Z,26.92
2019-02-27T04:31:06.188Z,26.89
2019-02-27T04:32:06.186Z,26.88
2019-02-27T04:33:06.187Z,26.92
2019-02-27T04:34:06.190Z,26.92
2019-02-27T04:35:06.861Z,26.87
2019-02-27T04:36:06.196Z,26.89
2019-02-27T04:37:06.199Z,26.87
2019-02-27T04:38:06.207Z,26.88
2019-02-27T04:39:06.205Z,26.91
2019-02-27T04:40:06.207Z,26.91
2019-02-27T04:41:06.209Z,26.91
2019-02-27T04:42:06.211Z,26.88
2019-02-27T04:43:06.215Z,26.92
2019-02-27T04:44:06.270Z,26.94
2019-02-27T04:45:06.221Z,26.89
2019-02-27T04:46:06.224Z,26.88
2019-02-27T04:47:06.226Z,26.95
2019-02-27T04:48:06.228Z,26.81
2019-02-27T04:49:06.231Z,26.89
2019-02-27T04:50:06.236Z,26.92
2019-02-27T04:51:06.240Z,26.91
2019-02-27T04:52:06.242Z,26.91
2019-02-27T04:53:06.247Z,26.91
2019-02-27T04:54:07.447Z,26.94
2019-02-27T04:55:06.253Z,26.92
2019-02-27T04:56:06.257Z,26.91
2019-02-27T04:57:06.262Z,26.91
2019-02-27T04:58:08.552Z,26.87
2019-02-27T04:59:06.266Z,26.92
2019-02-27T05:00:06.266Z,26.89
2019-02-27T05:01:06.276Z,26.89
2019-02-27T05:02:06.270Z,26.88
2019-02-27T05:03:06.272Z,26.87
2019-02-27T05:04:06.325Z,26.91
2019-02-27T05:05:08.605Z,26.91
2019-02-27T05:06:06.281Z,26.92
2019-02-27T05:07:06.285Z,26.82
2019-02-27T05:08:06.284Z,26.89
2019-02-27T05:09:06.288Z,26.94
2019-02-27T05:10:07.252Z,26.84
2019-02-27T05:11:06.292Z,26.82
2019-02-27T05:12:06.296Z,26.85
2019-02-27T05:13:06.299Z,26.81
2019-02-27T05:14:06.303Z,26.91
2019-02-27T05:15:06.306Z,26.88
2019-02-27T05:16:06.310Z,26.91
2019-02-27T05:17:06.311Z,26.91
2019-02-27T05:18:06.314Z,26.94
2019-02-27T05:19:06.331Z,26.94
2019-02-27T05:20:06.319Z,26.82
2019-02-27T05:21:06.320Z,26.91
2019-02-27T05:22:06.326Z,26.81
2019-02-27T05:23:06.330Z,26.91
2019-02-27T05:24:07.733Z,26.82
2019-02-27T05:25:06.335Z,26.81
2019-02-27T05:26:06.336Z,26.91
2019-02-27T05:27:06.339Z,26.85
2019-02-27T05:28:06.343Z,26.88
2019-02-27T05:29:06.345Z,26.85
2019-02-27T05:30:06.348Z,26.88
2019-02-27T05:31:06.351Z,26.91
2019-02-27T05:32:06.353Z,26.91
2019-02-27T05:33:06.356Z,26.89
2019-02-27T05:34:06.362Z,26.81
2019-02-27T05:35:06.367Z,26.89
2019-02-27T05:36:06.365Z,26.92
2019-02-27T05:37:06.373Z,26.92
2019-02-27T05:38:06.370Z,26.88
2019-02-27T05:39:06.378Z,26.91
2019-02-27T05:40:06.375Z,26.94
2019-02-27T05:41:06.379Z,26.89
2019-02-27T05:42:07.001Z,26.92
2019-02-27T05:43:06.382Z,26.84
2019-02-27T05:44:06.388Z,26.88
2019-02-27T05:45:06.397Z,26.91
2019-02-27T05:46:06.393Z,26.92
2019-02-27T05:47:08.616Z,26.99
2019-02-27T05:48:06.406Z,26.89
2019-02-27T05:49:06.451Z,26.91
2019-02-27T05:50:06.408Z,26.97
2019-02-27T05:51:07.674Z,26.92
2019-02-27T05:52:06.410Z,26.91
2019-02-27T05:53:06.411Z,26.95
2019-02-27T05:54:06.416Z,26.95
2019-02-27T05:55:07.086Z,26.94
2019-02-27T05:56:06.421Z,26.92
2019-02-27T05:57:06.425Z,26.95
2019-02-27T05:58:06.427Z,26.95
2019-02-27T05:59:06.432Z,26.95
2019-02-27T06:00:07.095Z,26.95
2019-02-27T06:01:06.436Z,26.94
2019-02-27T06:02:10.552Z,26.95
2019-02-27T06:03:06.441Z,27.03
2019-02-27T06:04:06.446Z,27.04
2019-02-27T06:05:06.447Z,27.09
2019-02-27T06:06:06.826Z,27.04
2019-02-27T06:07:06.453Z,27.06
2019-02-27T06:08:06.455Z,27.12
2019-02-27T06:09:09.961Z,27.10
2019-02-27T06:10:06.573Z,27.14
2019-02-27T06:11:06.477Z,27.06
2019-02-27T06:12:06.997Z,27.12
2019-02-27T06:13:06.470Z,27.07
2019-02-27T06:14:06.473Z,27.09
2019-02-27T06:15:06.478Z,27.09
2019-02-27T06:16:08.966Z,27.06
2019-02-27T06:17:06.485Z,27.04
2019-02-27T06:18:06.485Z,27.09
2019-02-27T06:19:06.588Z,27.13
2019-02-27T06:20:08.021Z,27.12
2019-02-27T06:21:06.499Z,27.10
2019-02-27T06:22:06.497Z,27.13
2019-02-27T06:23:07.310Z,27.19
2019-02-27T06:24:06.559Z,27.13
2019-02-27T06:25:06.486Z,27.24
2019-02-27T06:26:06.486Z,27.14
2019-02-27T06:27:06.918Z,27.18
2019-02-27T06:28:06.493Z,27.24
2019-02-27T06:29:06.496Z,27.24
2019-02-27T06:30:06.499Z,27.18
2019-02-27T06:31:06.501Z,27.19
2019-02-27T06:32:06.505Z,27.21
2019-02-27T06:33:06.508Z,27.24
2019-02-27T06:34:06.510Z,27.28
2019-02-27T06:35:06.515Z,27.29
2019-02-27T06:36:07.880Z,27.28
2019-02-27T06:37:06.519Z,27.27
2019-02-27T06:38:06.524Z,27.22
2019-02-27T06:39:08.630Z,27.28
2019-02-27T06:40:07.479Z,27.32
2019-02-27T06:41:06.539Z,27.34
2019-02-27T06:42:06.581Z,27.29
2019-02-27T06:43:06.559Z,27.29
2019-02-27T06:44:06.546Z,27.37
2019-02-27T06:45:06.545Z,27.39
2019-02-27T06:46:06.547Z,27.32
2019-02-27T06:47:07.249Z,27.31
2019-02-27T06:48:09.336Z,27.34
2019-02-27T06:49:06.657Z,27.36
2019-02-27T06:50:06.560Z,27.36
2019-02-27T06:51:06.565Z,27.47
2019-02-27T06:52:09.049Z,27.34
2019-02-27T06:53:06.568Z,27.44
2019-02-27T06:54:06.572Z,27.34
2019-02-27T06:55:06.574Z,27.37
2019-02-27T06:56:06.578Z,27.39
2019-02-27T06:57:07.669Z,27.41
2019-02-27T06:58:06.583Z,27.40
2019-02-27T06:59:06.587Z,27.43
2019-02-27T07:00:06.588Z,27.44
2019-02-27T07:01:09.114Z,27.43
2019-02-27T07:02:06.594Z,27.31
2019-02-27T07:03:06.599Z,27.43
2019-02-27T07:04:08.141Z,27.41
2019-02-27T07:05:06.607Z,27.41
2019-02-27T07:06:06.616Z,27.40
2019-02-27T07:07:06.616Z,27.29
2019-02-27T07:08:06.619Z,27.36
2019-02-27T07:09:11.394Z,27.41
2019-02-27T07:10:06.621Z,27.44
2019-02-27T07:11:10.937Z,27.40
2019-02-27T07:12:07.306Z,27.41
2019-02-27T07:13:06.631Z,27.39
2019-02-27T07:14:06.633Z,27.40
2019-02-27T07:15:06.636Z,27.49
2019-02-27T07:16:06.640Z,27.44
2019-02-27T07:17:06.645Z,27.44
2019-02-27T07:18:06.767Z,27.44
2019-02-27T07:19:06.648Z,27.41
2019-02-27T07:20:08.719Z,27.36
2019-02-27T07:21:06.655Z,27.34
2019-02-27T07:22:08.863Z,27.41
2019-02-27T07:23:06.661Z,27.43
2019-02-27T07:24:06.678Z,27.51
2019-02-27T07:25:07.255Z,27.47
2019-02-27T07:26:06.680Z,27.46
2019-02-27T07:27:06.673Z,27.46
2019-02-27T07:28:09.118Z,27.47
2019-02-27T07:29:06.682Z,27.46
2019-02-27T07:30:07.410Z,27.55
2019-02-27T07:31:06.685Z,27.47
2019-02-27T07:32:06.688Z,27.47
2019-02-27T07:33:07.370Z,27.54
2019-02-27T07:34:06.697Z,27.46
2019-02-27T07:35:06.701Z,27.51
2019-02-27T07:36:06.703Z,27.51
2019-02-27T07:37:06.703Z,27.57
2019-02-27T07:38:06.707Z,27.55
2019-02-27T07:39:06.717Z,27.59
2019-02-27T07:40:08.585Z,27.60
2019-02-27T07:41:06.717Z,27.57
2019-02-27T07:42:06.725Z,27.55
2019-02-27T07:43:06.722Z,27.57
2019-02-27T07:44:06.928Z,27.57
2019-02-27T07:45:08.069Z,27.54
2019-02-27T07:46:06.731Z,27.51
2019-02-27T07:47:06.743Z,27.59
2019-02-27T07:48:06.741Z,27.57
2019-02-27T07:49:06.793Z,27.62
2019-02-27T07:50:08.712Z,27.55
2019-02-27T07:51:06.751Z,27.55
2019-02-27T07:52:06.752Z,27.62
2019-02-27T07:53:06.762Z,27.60
2019-02-27T07:54:06.809Z,27.57
2019-02-27T07:55:18.514Z,27.62
2019-02-27T07:56:06.766Z,27.54
2019-02-27T07:57:06.772Z,27.65
2019-02-27T07:58:06.775Z,27.54
2019-02-27T07:59:06.825Z,27.62
2019-02-27T08:00:06.778Z,27.62
2019-02-27T08:01:06.781Z,27.65
2019-02-27T08:02:06.785Z,27.62
2019-02-27T08:03:09.304Z,27.60
2019-02-27T08:04:06.790Z,27.62
2019-02-27T08:05:06.794Z,27.66
2019-02-27T08:06:06.799Z,27.65
2019-02-27T08:07:06.801Z,27.69
2019-02-27T08:08:06.805Z,27.63
2019-02-27T08:09:06.807Z,27.66
2019-02-27T08:10:06.810Z,27.65
2019-02-27T08:11:06.814Z,27.66
2019-02-27T08:12:06.818Z,27.70
2019-02-27T08:13:06.821Z,27.59
2019-02-27T08:14:06.873Z,27.66
2019-02-27T08:15:06.832Z,27.70
2019-02-27T08:16:06.829Z,27.63
2019-02-27T08:17:17.039Z,27.66
2019-02-27T08:18:07.029Z,27.65
2019-02-27T08:19:08.933Z,27.67
2019-02-27T08:20:06.849Z,27.75
2019-02-27T08:21:06.847Z,27.72
2019-02-27T08:22:06.849Z,27.75
2019-02-27T08:23:07.001Z,27.72
2019-02-27T08:24:07.691Z,27.78
2019-02-27T08:25:06.900Z,27.77
2019-02-27T08:26:06.871Z,27.77
2019-02-27T08:27:07.118Z,27.79
2019-02-27T08:28:06.873Z,27.75
2019-02-27T08:29:06.874Z,27.81
2019-02-27T08:30:06.879Z,27.78
2019-02-27T08:31:06.878Z,27.77
2019-02-27T08:32:06.883Z,27.74
2019-02-27T08:33:08.401Z,27.75
2019-02-27T08:34:06.906Z,27.84
2019-02-27T08:35:06.893Z,27.87
2019-02-27T08:36:06.895Z,27.77
2019-02-27T08:37:06.901Z,27.79
2019-02-27T08:38:06.903Z,27.79
2019-02-27T08:39:06.908Z,27.70
2019-02-27T08:40:06.920Z,27.82
2019-02-27T08:41:06.912Z,27.81
2019-02-27T08:42:06.916Z,27.82
2019-02-27T08:43:06.919Z,27.81
2019-02-27T08:44:06.923Z,27.75
2019-02-27T08:45:06.926Z,27.78
2019-02-27T08:46:06.931Z,27.78
2019-02-27T08:47:09.804Z,27.78
2019-02-27T08:48:06.940Z,27.77
2019-02-27T08:49:06.942Z,27.90
2019-02-27T08:50:06.944Z,27.75
2019-02-27T08:51:08.706Z,27.75
2019-02-27T08:52:08.513Z,27.77
2019-02-27T08:53:06.952Z,27.75
2019-02-27T08:54:06.968Z,27.79
2019-02-27T08:55:06.961Z,27.82
2019-02-27T08:56:06.964Z,27.78
2019-02-27T08:57:06.965Z,27.74
2019-02-27T08:58:07.282Z,27.69
2019-02-27T08:59:06.975Z,27.79
2019-02-27T09:00:06.978Z,27.75
2019-02-27T09:01:06.986Z,27.82
2019-02-27T09:02:06.984Z,27.74
2019-02-27T09:03:06.989Z,27.69
2019-02-27T09:04:11.557Z,27.78
2019-02-27T09:05:06.994Z,27.78
2019-02-27T09:06:06.996Z,27.82
2019-02-27T09:07:06.998Z,27.81
2019-02-27T09:08:07.284Z,27.88
2019-02-27T09:09:07.951Z,27.79
2019-02-27T09:10:07.051Z,27.88
2019-02-27T09:11:07.012Z,27.72
2019-02-27T09:12:07.015Z,27.84
2019-02-27T09:13:07.025Z,27.85
2019-02-27T09:14:07.023Z,27.88
2019-02-27T09:15:07.028Z,27.87
2019-02-27T09:16:07.028Z,27.74
2019-02-27T09:17:07.036Z,27.94
2019-02-27T09:18:07.035Z,27.92
2019-02-27T09:19:09.440Z,27.81
2019-02-27T09:20:07.046Z,27.84
2019-02-27T09:21:07.047Z,27.84
2019-02-27T09:22:07.050Z,27.88
2019-02-27T09:23:07.054Z,27.82
2019-02-27T09:24:07.056Z,27.87
2019-02-27T09:25:07.060Z,27.94
2019-02-27T09:26:07.064Z,27.77
2019-02-27T09:27:07.068Z,27.94
2019-02-27T09:28:09.272Z,27.96
2019-02-27T09:29:07.073Z,27.88
2019-02-27T09:30:07.078Z,27.90
2019-02-27T09:31:07.079Z,27.87
2019-02-27T09:32:09.253Z,27.93
2019-02-27T09:33:07.087Z,27.94
2019-02-27T09:34:07.117Z,27.93
2019-02-27T09:35:07.095Z,27.87
2019-02-27T09:36:08.002Z,27.93
2019-02-27T09:37:07.100Z,27.93
2019-02-27T09:38:08.634Z,27.84
2019-02-27T09:39:07.158Z,27.92
2019-02-27T09:40:07.111Z,27.93
2019-02-27T09:41:07.118Z,27.90
2019-02-27T09:42:07.129Z,27.87
2019-02-27T09:43:07.120Z,27.92
2019-02-27T09:44:07.127Z,27.92
2019-02-27T09:45:08.277Z,27.84
2019-02-27T09:46:07.134Z,27.97
2019-02-27T09:47:07.135Z,27.85
2019-02-27T09:48:07.141Z,27.97
2019-02-27T09:49:07.212Z,27.93
2019-02-27T09:50:07.149Z,27.96
2019-02-27T09:51:07.158Z,28.00
2019-02-27T09:52:07.158Z,27.90
2019-02-27T09:53:07.169Z,27.88
2019-02-27T09:54:08.150Z,27.87
2019-02-27T09:55:07.162Z,27.88
2019-02-27T09:56:07.165Z,27.88
2019-02-27T09:57:07.170Z,27.92
2019-02-27T09:58:10.995Z,27.94
2019-02-27T09:59:07.179Z,27.90
2019-02-27T10:00:07.180Z,27.94
2019-02-27T10:01:07.182Z,27.94
2019-02-27T10:02:09.286Z,27.88
2019-02-27T10:03:07.189Z,27.92
2019-02-27T10:04:07.244Z,27.90
2019-02-27T10:05:07.244Z,27.88
2019-02-27T10:06:08.795Z,27.93
2019-02-27T10:07:07.205Z,27.99
2019-02-27T10:08:07.716Z,27.92
2019-02-27T10:09:07.272Z,28.00
2019-02-27T10:10:10.183Z,27.88
2019-02-27T10:11:07.216Z,27.94
2019-02-27T10:12:07.232Z,27.90
2019-02-27T10:13:07.224Z,27.99
2019-02-27T10:14:07.330Z,27.90
2019-02-27T10:15:07.232Z,27.92
2019-02-27T10:16:07.246Z,27.92
2019-02-27T10:17:09.152Z,27.92
2019-02-27T10:18:07.243Z,27.93
2019-02-27T10:19:07.294Z,27.94
2019-02-27T10:20:07.246Z,27.92
2019-02-27T10:21:09.441Z,27.93
2019-02-27T10:22:07.258Z,27.92
2019-02-27T10:23:07.260Z,28.00
2019-02-27T10:24:07.263Z,27.97
2019-02-27T10:25:08.599Z,28.00
2019-02-27T10:26:07.269Z,27.93
2019-02-27T10:27:07.273Z,28.03
2019-02-27T10:28:07.279Z,27.94
2019-02-27T10:29:07.284Z,28.02
2019-02-27T10:30:11.463Z,27.94
2019-02-27T10:31:07.286Z,28.00
2019-02-27T10:32:07.289Z,28.03
2019-02-27T10:33:07.291Z,27.93
2019-02-27T10:34:07.297Z,27.92
2019-02-27T10:35:07.302Z,28.00
2019-02-27T10:36:07.309Z,27.96
2019-02-27T10:37:07.479Z,27.96
2019-02-27T10:38:07.319Z,27.97
2019-02-27T10:39:07.371Z,28.00
2019-02-27T10:40:08.788Z,28.02
2019-02-27T10:41:07.320Z,28.07
2019-02-27T10:42:07.331Z,28.07
2019-02-27T10:43:07.328Z,28.00
2019-02-27T10:44:07.445Z,28.09
2019-02-27T10:45:09.724Z,28.02
2019-02-27T10:46:07.340Z,28.03
2019-02-27T10:47:07.341Z,28.03
2019-02-27T10:48:07.348Z,28.02
2019-02-27T10:49:07.349Z,28.17
2019-02-27T10:50:07.354Z,28.07
2019-02-27T10:51:09.429Z,28.06
2019-02-27T10:52:07.369Z,28.11
2019-02-27T10:53:07.384Z,28.00
2019-02-27T10:54:07.367Z,28.14
2019-02-27T10:55:07.371Z,28.11
2019-02-27T10:56:07.373Z,28.00
2019-02-27T10:57:07.377Z,28.14
2019-02-27T10:58:07.770Z,28.12
2019-02-27T10:59:07.382Z,28.04
2019-02-27T11:00:07.387Z,28.09
2019-02-27T11:01:07.393Z,28.00
2019-02-27T11:02:09.758Z,28.07
2019-02-27T11:03:07.399Z,28.03
2019-02-27T11:04:07.401Z,28.12
2019-02-27T11:05:07.406Z,28.03
2019-02-27T11:06:07.411Z,28.06
2019-02-27T11:07:07.413Z,28.00
2019-02-27T11:08:07.415Z,28.09
2019-02-27T11:09:07.419Z,28.12
2019-02-27T11:10:07.426Z,28.14
2019-02-27T11:11:08.731Z,28.04
2019-02-27T11:12:07.431Z,28.00
2019-02-27T11:13:07.437Z,28.14
2019-02-27T11:14:07.489Z,28.14
2019-02-27T11:15:08.177Z,28.12
2019-02-27T11:16:07.441Z,28.18
2019-02-27T11:17:07.452Z,28.15
2019-02-27T11:18:07.726Z,28.15
2019-02-27T11:19:07.504Z,28.21
2019-02-27T11:20:07.456Z,28.15
2019-02-27T11:21:07.459Z,28.11
2019-02-27T11:22:07.465Z,28.11
2019-02-27T11:23:07.803Z,28.17
2019-02-27T11:24:07.522Z,28.15
2019-02-27T11:25:07.532Z,28.00
2019-02-27T11:26:07.480Z,28.17
2019-02-27T11:27:07.490Z,28.14
2019-02-27T11:28:07.487Z,28.11
2019-02-27T11:29:07.540Z,28.04
2019-02-27T11:30:07.492Z,28.03
2019-02-27T11:31:08.440Z,28.14
2019-02-27T11:32:07.501Z,28.14
2019-02-27T11:33:07.510Z,28.17
2019-02-27T11:34:07.785Z,28.17
2019-02-27T11:35:07.515Z,28.15
2019-02-27T11:36:07.517Z,28.07
2019-02-27T11:37:12.946Z,28.04
2019-02-27T11:38:07.521Z,28.09
2019-02-27T11:39:07.524Z,28.06
2019-02-27T11:40:07.870Z,28.04
2019-02-27T11:41:07.532Z,28.06
2019-02-27T11:42:07.535Z,28.09
2019-02-27T11:43:07.696Z,28.11
2019-02-27T11:44:07.545Z,28.09
2019-02-27T11:45:07.546Z,28.12
2019-02-27T11:46:07.550Z,28.12
2019-02-27T11:47:10.929Z,28.02
2019-02-27T11:48:07.557Z,28.11
2019-02-27T11:49:07.583Z,28.09
2019-02-27T11:50:07.569Z,28.12
2019-02-27T11:51:07.568Z,28.07
2019-02-27T11:52:07.569Z,28.04
2019-02-27T11:53:07.575Z,28.02
2019-02-27T11:54:08.414Z,28.06
2019-02-27T11:55:07.585Z,28.03
2019-02-27T11:56:07.585Z,28.09
2019-02-27T11:57:07.590Z,28.07
2019-02-27T11:58:07.609Z,28.09
2019-02-27T11:59:10.230Z,28.09
2019-02-27T12:00:07.601Z,28.02
2019-02-27T12:01:07.606Z,28.02
2019-02-27T12:02:07.605Z,27.97
2019-02-27T12:03:08.583Z,28.03
2019-02-27T12:04:07.614Z,28.04
2019-02-27T12:05:07.614Z,27.97
2019-02-27T12:06:08.411Z,27.97
2019-02-27T12:07:07.627Z,27.97
2019-02-27T12:08:07.627Z,27.96
2019-02-27T12:09:07.630Z,27.99
2019-02-27T12:10:08.940Z,28.02
2019-02-27T12:11:09.693Z,28.03
2019-02-27T12:12:07.641Z,27.94
2019-02-27T12:13:07.646Z,27.97
2019-02-27T12:14:09.133Z,27.93
2019-02-27T12:15:09.119Z,28.02
2019-02-27T12:16:07.653Z,27.97
2019-02-27T12:17:07.659Z,28.00
2019-02-27T12:18:07.660Z,27.90
2019-02-27T12:19:08.750Z,27.97
2019-02-27T12:20:07.669Z,27.92
2019-02-27T12:21:07.670Z,27.96
2019-02-27T12:22:07.678Z,27.88
2019-02-27T12:23:10.157Z,27.88
2019-02-27T12:24:07.682Z,28.00
2019-02-27T12:25:07.683Z,27.92
2019-02-27T12:26:07.694Z,27.92
2019-02-27T12:27:10.398Z,27.97
2019-02-27T12:28:07.704Z,28.03
2019-02-27T12:29:07.699Z,28.00
2019-02-27T12:30:07.704Z,27.97
2019-02-27T12:31:08.187Z,27.94
2019-02-27T12:32:07.709Z,27.97
2019-02-27T12:33:07.713Z,28.03
2019-02-27T12:34:07.716Z,28.02
2019-02-27T12:35:08.235Z,28.07
2019-02-27T12:36:08.995Z,27.97
2019-02-27T12:37:16.375Z,28.04
2019-02-27T12:38:08.529Z,28.07
2019-02-27T12:39:07.785Z,28.06
2019-02-27T12:40:07.736Z,28.02
2019-02-27T12:41:07.741Z,28.09
2019-02-27T12:42:07.836Z,28.12
2019-02-27T12:43:07.749Z,28.14
2019-02-27T12:44:07.750Z,28.12
2019-02-27T12:45:07.755Z,28.07
2019-02-27T12:46:09.670Z,28.11
2019-02-27T12:47:07.764Z,28.11
2019-02-27T12:48:07.763Z,28.14
2019-02-27T12:49:07.767Z,28.14
2019-02-27T12:50:07.772Z,28.07
2019-02-27T12:51:07.775Z,28.11
2019-02-27T12:52:09.046Z,28.11